Time;durP1;ratioP1;P1;durP2;ratioP2;P2;SDS_P1;SDS_P2;PMS_P1;PMS_P2;Temp;Humidity;BMP_temperature;BMP_pressure;BME280_temperature;BME280_humidity;BME280_pressure;Samples;Min_cycle;Max_cycle;Signal;HPM_P1;HPM_P2
2022/08/17 00:00:38;;;;;;;16.05;7.82;;;;;;;23.90;47.96;100469.25;5074745;28;20048;-55
2022/08/17 00:03:12;;;;;;;14.45;7.35;;;;;;;23.91;48.27;100464.66;5074449;28;20048;-54
2022/08/17 00:08:20;;;;;;;19.15;7.55;;;;;;;23.90;48.10;100468.44;5090776;28;20653;-54
2022/08/17 00:10:48;;;;;;;16.75;7.55;;;;;;;23.84;48.65;100472.94;5090805;28;20044;-54
2022/08/17 00:13:21;;;;;;;16.27;7.55;;;;;;;23.79;47.86;100467.44;5089613;28;20052;-54
2022/08/17 00:15:47;;;;;;;16.83;7.80;;;;;;;23.83;48.46;100463.19;5090877;28;20490;-53
2022/08/17 00:18:15;;;;;;;18.30;7.70;;;;;;;23.78;49.02;100463.09;5072922;28;20044;-54
2022/08/17 00:20:42;;;;;;;17.60;8.05;;;;;;;23.79;49.53;100461.19;5090783;28;20052;-54
2022/08/17 00:23:13;;;;;;;12.35;7.90;;;;;;;23.72;49.75;100459.50;4978085;28;20474;-54
2022/08/17 00:25:44;;;;;;;16.90;8.02;;;;;;;23.68;49.59;100461.03;5090664;28;20071;-54
2022/08/17 00:28:14;;;;;;;18.48;7.70;;;;;;;23.67;49.29;100451.28;5089486;28;20048;-55
2022/08/17 00:30:43;;;;;;;17.20;7.65;;;;;;;23.58;49.62;100456.28;5090519;28;20127;-55
2022/08/17 00:33:14;;;;;;;20.38;7.90;;;;;;;23.58;49.46;100458.19;5089655;28;20078;-56
2022/08/17 00:35:44;;;;;;;23.38;7.95;;;;;;;23.54;49.67;100457.88;5090436;28;20076;-55
2022/08/17 00:38:11;;;;;;;18.20;7.45;;;;;;;23.53;49.42;100464.34;5090492;28;20044;-54
2022/08/17 00:40:44;;;;;;;19.73;8.05;;;;;;;23.54;49.16;100459.75;5090329;28;20055;-54
2022/08/17 00:43:16;;;;;;;15.43;7.60;;;;;;;23.53;49.71;100458.09;5090265;28;20493;-54
2022/08/17 00:45:43;;;;;;;15.48;7.90;;;;;;;23.47;50.32;100462.63;5090106;28;20398;-54
2022/08/17 00:48:11;;;;;;;15.98;7.70;;;;;;;23.43;50.22;100458.78;5089851;28;20045;-57
2022/08/17 00:50:43;;;;;;;15.52;7.93;;;;;;;23.42;49.92;100451.72;5090231;28;20048;-54
2022/08/17 00:53:10;;;;;;;19.85;8.07;;;;;;;23.40;50.75;100448.44;5090269;28;20477;-54
2022/08/17 00:55:37;;;;;;;17.05;7.80;;;;;;;23.43;50.82;100450.66;5090131;28;20078;-55
2022/08/17 00:58:05;;;;;;;18.30;7.90;;;;;;;23.37;50.70;100447.03;5088674;28;20493;-54
2022/08/17 01:00:39;;;;;;;17.52;7.88;;;;;;;23.24;50.36;100450.06;5089464;28;20057;-54
2022/08/17 01:03:11;;;;;;;15.10;7.50;;;;;;;23.24;50.84;100447.34;5089684;28;20044;-56
2022/08/17 01:05:40;;;;;;;17.90;8.20;;;;;;;23.22;50.11;100446.78;5089946;28;20040;-56
2022/08/17 01:08:11;;;;;;;18.67;8.20;;;;;;;23.24;51.24;100441.13;5089411;28;20052;-57
2022/08/17 01:10:42;;;;;;;16.67;8.35;;;;;;;23.21;50.95;100445.13;5089585;28;20401;-56
2022/08/17 01:13:10;;;;;;;18.67;8.60;;;;;;;23.19;51.39;100442.69;5089858;28;20394;-56
2022/08/17 01:15:40;;;;;;;23.33;8.30;;;;;;;23.18;51.46;100438.34;5089792;28;20048;-56
2022/08/17 01:18:10;;;;;;;16.50;7.70;;;;;;;23.08;51.67;100438.16;5084611;28;20050;-56
2022/08/17 01:20:45;;;;;;;16.42;7.90;;;;;;;23.08;52.10;100443.56;5076027;28;20045;-56
2022/08/17 01:23:13;;;;;;;20.35;8.55;;;;;;;23.04;52.69;100436.16;4959882;28;20056;-56
2022/08/17 01:25:40;;;;;;;18.67;8.07;;;;;;;22.98;52.66;100449.59;5076239;28;20044;-56
2022/08/17 01:28:07;;;;;;;18.77;8.50;;;;;;;22.98;53.14;100443.38;5076022;28;20127;-56
2022/08/17 01:30:34;;;;;;;17.58;8.38;;;;;;;22.91;53.08;100446.22;5076195;28;20041;-56
2022/08/17 01:33:01;;;;;;;18.40;7.90;;;;;;;22.88;53.55;100448.59;5075805;28;20074;-56
2022/08/17 01:35:28;;;;;;;18.33;9.07;;;;;;;22.80;53.64;100442.50;5075201;28;20075;-56
2022/08/17 01:37:54;;;;;;;17.42;8.85;;;;;;;22.78;53.41;100444.66;5075802;28;20059;-56
2022/08/17 01:40:34;;;;;;;18.75;8.80;;;;;;;22.72;53.46;100444.78;5075685;28;20416;-56
2022/08/17 01:43:09;;;;;;;16.55;9.02;;;;;;;22.64;54.36;100434.38;5075280;28;20471;-56
2022/08/17 01:45:43;;;;;;;20.45;8.88;;;;;;;22.63;54.66;100441.66;5075487;28;20041;-56
2022/08/17 01:48:11;;;;;;;14.38;8.32;;;;;;;22.60;54.59;100439.44;5075808;28;20525;-56
2022/08/17 01:50:40;;;;;;;16.08;7.72;;;;;;;22.58;54.15;100441.56;5075312;28;20068;-56
2022/08/17 01:53:12;;;;;;;16.30;8.43;;;;;;;22.50;54.70;100441.94;5075590;28;20452;-55
2022/08/17 01:55:47;;;;;;;17.90;8.75;;;;;;;22.47;54.89;100443.25;5075570;28;20054;-56
2022/08/17 01:58:14;;;;;;;16.40;8.57;;;;;;;22.41;55.11;100431.50;5075516;28;20094;-56
2022/08/17 02:00:45;;;;;;;16.40;9.07;;;;;;;22.41;55.44;100438.78;5075374;28;20094;-55
2022/08/17 02:03:12;;;;;;;16.27;8.68;;;;;;;22.36;55.33;100434.13;5075182;28;20401;-56
2022/08/17 02:05:39;;;;;;;17.60;8.82;;;;;;;22.36;55.24;100442.22;5074912;28;20050;-56
2022/08/17 02:08:06;;;;;;;16.52;8.32;;;;;;;22.43;54.81;100442.91;5073832;28;20044;-55
2022/08/17 02:10:33;;;;;;;18.65;8.88;;;;;;;22.38;54.83;100439.28;5074967;28;20505;-56
2022/08/17 02:13:02;;;;;;;18.90;8.80;;;;;;;22.35;54.81;100437.03;5075356;28;20070;-55
2022/08/17 02:15:29;;;;;;;18.23;8.73;;;;;;;22.36;55.32;100441.41;5074749;28;20036;-56
2022/08/17 02:17:55;;;;;;;15.95;8.35;;;;;;;22.37;55.71;100438.44;5075232;28;20044;-56
2022/08/17 02:20:22;;;;;;;22.98;8.38;;;;;;;22.41;55.21;100433.38;5073546;28;20059;-56
2022/08/17 02:22:49;;;;;;;15.95;8.57;;;;;;;22.41;55.62;100438.78;4946839;28;20510;-56
2022/08/17 02:25:19;;;;;;;18.33;8.43;;;;;;;22.35;55.49;100432.47;5074904;28;20051;-56
2022/08/17 02:27:50;;;;;;;18.83;8.88;;;;;;;22.33;55.38;100439.97;5074903;28;20044;-56
2022/08/17 02:30:17;;;;;;;16.35;8.85;;;;;;;22.36;55.55;100438.69;5072841;28;20098;-55
2022/08/17 02:32:44;;;;;;;15.40;8.43;;;;;;;22.28;54.55;100445.28;5074772;28;20466;-56
2022/08/17 02:35:12;;;;;;;16.02;7.90;;;;;;;22.34;55.34;100438.09;5074433;28;20045;-56
2022/08/17 02:37:41;;;;;;;15.95;8.35;;;;;;;22.38;55.48;100437.38;5074895;28;20041;-56
2022/08/17 02:40:08;;;;;;;16.30;7.78;;;;;;;22.40;55.34;100429.88;5074691;28;20076;-56
2022/08/17 02:42:38;;;;;;;17.23;7.60;;;;;;;22.33;54.66;100437.28;5074408;28;20052;-56
2022/08/17 02:45:10;;;;;;;18.80;8.30;;;;;;;22.39;54.97;100430.09;5074048;28;20426;-56
2022/08/17 02:47:36;;;;;;;;;;;;;;;22.29;55.22;100428.03;5074943;28;20055;-56
2022/08/17 02:50:04;;;;;;;16.55;8.32;;;;;;;22.30;55.14;100429.66;5074640;28;19964;-56
2022/08/17 02:52:33;;;;;;;15.10;7.75;;;;;;;22.31;55.17;100428.59;5067723;28;20051;-55
2022/08/17 02:55:00;;;;;;;13.55;7.28;;;;;;;22.29;55.22;100432.63;5074165;28;20040;-56
2022/08/17 02:57:26;;;;;;;18.55;7.85;;;;;;;22.24;55.63;100436.78;5074222;28;20098;-55
2022/08/17 02:59:53;;;;;;;16.92;7.68;;;;;;;22.25;55.37;100437.66;5074382;28;20102;-56
2022/08/17 03:02:20;;;;;;;19.88;7.88;;;;;;;22.22;55.60;100432.72;5073877;28;20049;-56
2022/08/17 03:04:47;;;;;;;16.33;8.10;;;;;;;22.24;55.83;100430.59;5073593;28;20044;-56
2022/08/17 03:07:14;;;;;;;14.05;7.35;;;;;;;22.20;55.23;100435.63;5073657;28;20045;-56
2022/08/17 03:09:41;;;;;;;20.05;8.40;;;;;;;22.21;55.11;100431.91;5073915;28;20405;-55
2022/08/17 03:12:11;;;;;;;16.95;7.93;;;;;;;22.20;55.70;100424.03;5073724;28;20559;-56
2022/08/17 03:14:40;;;;;;;16.52;7.93;;;;;;;22.21;55.59;100425.66;5073945;28;20044;-54
2022/08/17 03:17:09;;;;;;;14.10;7.45;;;;;;;22.20;55.92;100430.25;5073791;28;20064;-56
2022/08/17 03:19:36;;;;;;;16.23;7.85;;;;;;;22.18;55.38;100429.66;5073995;28;20052;-56
2022/08/17 03:22:05;;;;;;;16.50;7.97;;;;;;;22.18;56.27;100423.44;5073773;28;20482;-56
2022/08/17 03:24:32;;;;;;;17.42;8.65;;;;;;;22.21;55.47;100425.66;4947352;28;20513;-56
2022/08/17 03:26:59;;;;;;;15.05;7.43;;;;;;;22.12;55.24;100425.22;5073380;28;20477;-56
2022/08/17 03:29:26;;;;;;;14.73;7.70;;;;;;;22.08;56.15;100429.44;5073870;28;20056;-54
2022/08/17 03:31:52;;;;;;;20.15;8.65;;;;;;;22.06;55.55;100420.75;5073722;28;20448;-56
2022/08/17 03:34:19;;;;;;;15.07;8.15;;;;;;;22.10;55.96;100427.31;5072891;28;20498;-56
2022/08/17 03:36:46;;;;;;;13.95;7.82;;;;;;;22.10;55.69;100424.63;5073558;28;20040;-55
2022/08/17 03:39:12;;;;;;;14.48;7.63;;;;;;;22.09;55.45;100420.28;5074330;28;20045;-55
2022/08/17 03:41:39;;;;;;;14.88;7.63;;;;;;;22.04;55.17;100423.69;5073532;28;20132;-56
2022/08/17 03:44:06;;;;;;;17.58;7.85;;;;;;;21.97;55.69;100420.28;5073312;28;20466;-55
2022/08/17 03:57:39;;;;;;;11.88;6.95;;;;;;;22.05;55.23;100421.84;5073294;28;20193;-56
2022/08/17 04:00:06;;;;;;;16.58;7.30;;;;;;;22.05;55.32;100427.22;5073211;28;20056;-56
2022/08/17 04:02:48;;;;;;;16.05;6.63;;;;;;;22.03;55.51;100429.34;5111160;27;20722;-54
2022/08/17 04:05:15;;;;;;;12.85;6.97;;;;;;;21.92;55.21;100438.28;5110426;28;20032;-55
2022/08/17 04:07:42;;;;;;;14.40;7.43;;;;;;;21.94;55.47;100441.56;5111403;28;20097;-53
2022/08/17 04:10:09;;;;;;;15.95;7.20;;;;;;;21.92;55.54;100439.13;5110743;28;20040;-54
2022/08/17 04:12:47;;;;;;;13.95;7.20;;;;;;;21.94;56.00;100433.44;5110984;28;20043;-54
2022/08/17 04:15:14;;;;;;;13.90;7.53;;;;;;;21.88;55.64;100429.81;5110737;28;20062;-55
2022/08/17 04:17:43;;;;;;;13.02;7.63;;;;;;;21.91;55.44;100431.25;5110042;28;20395;-56
2022/08/17 04:20:12;;;;;;;14.55;8.38;;;;;;;21.89;55.84;100430.66;5110959;28;20047;-53
2022/08/17 04:22:38;;;;;;;12.52;6.72;;;;;;;21.90;55.56;100443.91;4983479;28;20485;-56
2022/08/17 04:25:20;;;;;;;15.45;7.63;;;;;;;21.93;55.95;100446.13;5092852;28;20048;-54
2022/08/17 04:27:47;;;;;;;19.90;7.50;;;;;;;21.96;56.27;100455.66;5110844;28;20048;-54
2022/08/17 04:30:14;;;;;;;15.15;6.68;;;;;;;21.91;55.57;100458.25;5109998;28;20079;-56
2022/08/17 04:33:04;;;;;;;15.15;7.50;;;;;;;21.90;55.33;100454.69;5110358;28;20123;-55
2022/08/17 04:35:36;;;;;;;14.45;7.10;;;;;;;21.93;55.25;100458.81;5109052;28;20054;-54
2022/08/17 04:38:04;;;;;;;14.63;6.80;;;;;;;21.90;55.25;100462.81;5110533;28;20050;-55
2022/08/17 04:43:21;;;;;;;12.77;7.10;;;;;;;21.97;55.09;100449.19;5109877;28;20042;-55
2022/08/17 04:45:51;;;;;;;15.35;6.55;;;;;;;21.93;54.98;100465.03;5092441;28;20040;-54
2022/08/17 04:48:17;;;;;;;14.82;6.70;;;;;;;21.98;55.45;100462.47;5110623;28;20051;-54
2022/08/17 04:50:49;;;;;;;14.45;6.78;;;;;;;21.87;54.84;100466.00;5110315;28;20071;-54
2022/08/17 04:53:18;;;;;;;17.17;6.50;;;;;;;21.89;55.18;100471.97;5110313;28;20044;-55
2022/08/17 04:55:45;;;;;;;12.75;6.28;;;;;;;21.88;54.49;100469.50;5110234;28;20063;-53
2022/08/17 04:58:11;;;;;;;14.20;6.45;;;;;;;22.02;54.67;100458.22;5109960;28;20408;-54
2022/08/17 05:00:39;;;;;;;13.80;6.85;;;;;;;21.96;54.91;100461.06;5109701;28;20035;-55
2022/08/17 05:03:05;;;;;;;13.80;6.57;;;;;;;22.08;55.03;100459.16;5109813;28;20055;-55
2022/08/17 05:05:36;;;;;;;12.75;6.20;;;;;;;22.10;54.27;100459.72;5109555;28;20036;-54
2022/08/17 05:08:05;;;;;;;15.75;6.85;;;;;;;22.08;54.49;100459.16;5109775;28;20046;-54
2022/08/17 05:10:35;;;;;;;19.73;9.90;;;;;;;22.13;54.23;100458.44;5109907;28;20048;-54
2022/08/17 05:13:07;;;;;;;15.63;6.32;;;;;;;22.13;54.99;100461.16;5102640;28;20044;-56
2022/08/17 05:15:36;;;;;;;12.77;6.90;;;;;;;22.14;54.55;100452.81;5096233;28;20044;-54
2022/08/17 05:18:04;;;;;;;15.68;6.65;;;;;;;22.13;54.47;100458.44;5096142;28;20072;-54
2022/08/17 05:20:33;;;;;;;17.23;6.45;;;;;;;22.14;55.18;100462.78;5096095;28;20051;-54
2022/08/17 05:23:05;;;;;;;15.55;7.03;;;;;;;22.18;54.71;100469.38;5062210;28;20485;-54
2022/08/17 05:25:36;;;;;;;12.10;6.18;;;;;;;22.17;54.07;100465.00;5096361;28;20052;-54
2022/08/17 05:28:04;;;;;;;13.45;6.82;;;;;;;22.17;55.10;100456.91;5094778;28;20054;-54
2022/08/17 05:30:32;;;;;;;13.35;7.05;;;;;;;22.12;54.52;100456.78;5095005;28;20176;-54
2022/08/17 05:33:06;;;;;;;19.60;7.55;;;;;;;22.13;54.43;100458.44;5095601;28;20046;-55
2022/08/17 05:35:36;;;;;;;15.10;6.47;;;;;;;22.16;53.87;100457.97;5095688;28;20044;-54
2022/08/17 05:38:03;;;;;;;17.10;6.72;;;;;;;22.15;54.37;100450.94;5095643;28;20056;-53
2022/08/17 05:40:30;;;;;;;16.15;6.55;;;;;;;22.18;55.01;100447.75;5095219;28;20432;-54
2022/08/17 05:43:10;;;;;;;15.63;6.45;;;;;;;22.11;54.36;100449.75;5095464;28;20036;-55
2022/08/17 05:45:44;;;;;;;15.88;6.40;;;;;;;22.20;54.69;100461.84;5095157;28;20078;-55
2022/08/17 05:48:12;;;;;;;11.73;6.13;;;;;;;22.23;55.20;100462.19;5095116;28;20055;-55
2022/08/17 05:51:04;;;;;;;14.80;5.93;;;;;;;22.37;53.56;100480.84;5094731;28;20052;-55
2022/08/17 05:54:09;;;;;;;18.08;6.60;;;;;;;22.46;53.81;100511.84;5094477;28;20115;-55
2022/08/17 05:59:37;;;;;;;19.05;6.97;;;;;;;21.96;55.40;100512.38;5069844;28;20387;-55
2022/08/17 06:02:20;;;;;;;20.10;7.40;;;;;;;22.20;54.88;100494.25;5069861;28;20407;-54
2022/08/17 06:07:44;;;;;;;12.90;6.70;;;;;;;22.23;53.92;100520.81;5070414;28;20397;-53
2022/08/17 06:10:31;;;;;;;15.32;6.30;;;;;;;22.17;54.54;100498.25;5052770;28;20556;-54
2022/08/17 06:13:22;;;;;;;21.17;6.57;;;;;;;22.18;54.47;100508.00;5070215;28;20406;-54
2022/08/17 06:18:44;;;;;;;13.57;6.80;;;;;;;22.24;54.35;100500.81;5111124;27;20347;-54
2022/08/17 06:21:15;;;;;;;15.63;7.35;;;;;;;22.43;53.61;100504.25;5110942;28;20044;-54
2022/08/17 06:23:49;;;;;;;17.48;6.30;;;;;;;22.46;53.76;100508.34;4995483;28;20036;-53
2022/08/17 06:26:21;;;;;;;13.45;6.32;;;;;;;22.38;53.85;100512.25;5110905;28;20435;-55
2022/08/17 06:28:55;;;;;;;22.88;6.45;;;;;;;22.47;53.90;100501.88;5111024;28;20075;-54
2022/08/17 06:31:28;;;;;;;15.15;6.55;;;;;;;22.55;53.51;100509.59;5110261;28;20052;-54
2022/08/17 06:33:56;;;;;;;13.98;6.80;;;;;;;22.61;53.63;100505.94;5110229;28;20061;-54
2022/08/17 06:36:50;;;;;;;16.83;7.00;;;;;;;22.65;53.79;100508.97;5110488;28;20108;-54
2022/08/17 06:39:48;;;;;;;27.30;7.05;;;;;;;22.70;54.14;100504.53;5110943;28;20052;-54
2022/08/17 06:42:39;;;;;;;20.45;8.15;;;;;;;22.66;54.70;100506.03;5110000;28;20404;-55
2022/08/17 06:45:14;;;;;;;21.52;8.77;;;;;;;22.83;54.34;100507.97;5110846;28;20043;-55
2022/08/17 06:47:50;;;;;;;19.90;8.45;;;;;;;22.78;54.54;100511.44;5110571;28;20044;-54
2022/08/17 06:50:26;;;;;;;16.20;8.90;;;;;;;22.83;54.59;100516.94;5110911;28;20055;-54
2022/08/17 06:53:12;;;;;;;19.85;9.57;;;;;;;22.75;55.92;100523.53;5110453;28;20132;-55
2022/08/17 06:56:03;;;;;;;18.90;9.60;;;;;;;22.81;55.42;100538.81;5110620;28;20400;-55
2022/08/17 06:58:32;;;;;;;18.10;10.10;;;;;;;22.94;54.76;100532.28;5109971;28;20441;-56
2022/08/17 07:01:08;;;;;;;18.90;9.48;;;;;;;23.00;55.15;100527.78;5110289;28;20044;-56
2022/08/17 07:03:57;;;;;;;22.10;9.52;;;;;;;23.01;55.24;100545.66;5109670;28;20122;-55
2022/08/17 07:06:33;;;;;;;19.85;10.45;;;;;;;22.93;55.52;100541.47;5110071;28;20105;-55
2022/08/17 07:09:06;;;;;;;20.50;10.70;;;;;;;22.85;56.35;100549.13;5100671;28;20112;-55
2022/08/17 07:11:42;;;;;;;21.45;10.43;;;;;;;22.75;56.62;100545.16;5110078;28;20043;-56
2022/08/17 07:14:36;;;;;;;20.52;11.18;;;;;;;22.65;57.27;100553.06;5109682;28;20074;-53
2022/08/17 07:17:09;;;;;;;27.40;10.88;;;;;;;22.76;57.27;100543.28;5109923;28;20047;-55
2022/08/17 07:19:39;;;;;;;21.80;10.50;;;;;;;22.69;57.79;100548.81;5110049;28;20043;-55
2022/08/17 07:22:24;;;;;;;20.48;10.75;;;;;;;22.75;57.38;100549.75;5110564;28;20051;-55
2022/08/17 07:24:58;;;;;;;26.65;11.48;;;;;;;22.85;57.29;100551.81;5010161;28;20046;-54
2022/08/17 07:27:30;;;;;;;21.60;11.00;;;;;;;22.82;57.27;100555.84;5110218;28;20516;-55
2022/08/17 07:30:04;;;;;;;21.15;11.30;;;;;;;22.95;56.66;100557.44;5095922;28;20040;-57
2022/08/17 07:32:42;;;;;;;22.25;11.38;;;;;;;22.97;57.10;100558.84;5095928;28;20123;-55
2022/08/17 07:38:27;;;;;;;22.00;11.38;;;;;;;23.07;56.50;100547.44;5111288;27;20043;-54
2022/08/17 07:43:48;;;;;;;25.42;11.60;;;;;;;23.01;57.49;100540.25;5110844;27;20047;-54
2022/08/17 07:49:36;;;;;;;27.63;11.75;;;;;;;23.18;56.77;100548.44;5110739;28;20400;-53
2022/08/17 07:52:08;;;;;;;29.50;11.75;;;;;;;23.27;56.84;100563.22;5111324;28;20054;-53
2022/08/17 07:54:39;;;;;;;25.08;11.95;;;;;;;23.19;57.56;100569.03;5110745;28;20044;-54
2022/08/17 08:00:08;;;;;;;17.23;12.27;;;;;;;23.28;56.17;100564.84;5090719;28;20406;-53
2022/08/17 08:02:44;;;;;;;24.27;12.60;;;;;;;23.27;56.50;100575.94;5090524;28;20048;-53
2022/08/17 08:05:22;;;;;;;24.40;11.90;;;;;;;23.08;56.74;100578.00;5090005;28;20036;-54
2022/08/17 08:07:54;;;;;;;22.70;12.85;;;;;;;23.14;57.04;100577.03;5090570;28;20120;-53
2022/08/17 08:10:42;;;;;;;24.83;12.38;;;;;;;23.15;57.50;100581.41;5090528;28;20567;-54
2022/08/17 08:13:20;;;;;;;25.67;13.70;;;;;;;23.26;56.95;100575.09;5090515;28;20047;-54
2022/08/17 08:15:52;;;;;;;30.17;13.07;;;;;;;23.34;57.04;100577.44;5090574;28;20498;-54
2022/08/17 08:18:42;;;;;;;22.38;13.20;;;;;;;23.51;56.15;100584.75;5090822;28;20040;-54
2022/08/17 08:21:18;;;;;;;23.52;12.80;;;;;;;23.47;56.28;100589.03;5090561;28;20044;-55
2022/08/17 08:23:58;;;;;;;23.75;12.77;;;;;;;23.46;57.26;100590.09;5037661;28;20127;-55
2022/08/17 08:26:33;;;;;;;21.02;12.40;;;;;;;23.58;55.53;100585.44;5090330;28;20055;-54
2022/08/17 08:29:13;;;;;;;24.23;12.98;;;;;;;23.63;55.67;100590.09;5090274;28;20072;-54
2022/08/17 08:32:06;;;;;;;22.23;12.93;;;;;;;23.58;55.93;100594.38;5089697;28;20052;-53
2022/08/17 08:34:45;;;;;;;27.63;13.88;;;;;;;23.39;56.35;100590.22;5089993;28;20528;-54
2022/08/17 08:37:31;;;;;;;20.83;13.10;;;;;;;23.35;56.43;100598.00;5090057;28;20500;-54
2022/08/17 08:40:22;;;;;;;20.52;12.80;;;;;;;23.31;57.47;100601.44;5090229;28;20060;-54
2022/08/17 08:46:12;;;;;;;22.52;13.52;;;;;;;23.32;57.49;100600.38;5111344;27;20383;-54
2022/08/17 08:49:04;;;;;;;25.85;14.07;;;;;;;23.20;57.21;100597.72;5110892;28;20058;-54
2022/08/17 08:54:52;;;;;;;24.95;13.18;;;;;;;23.44;56.62;100597.63;5070489;28;20706;-54
2022/08/17 08:57:26;;;;;;;24.77;13.38;;;;;;;23.31;57.88;100591.44;5070629;28;20070;-54
2022/08/17 09:00:21;;;;;;;20.90;14.23;;;;;;;23.38;57.27;100583.19;5070686;28;20051;-54
2022/08/17 09:03:06;;;;;;;;;;;;;;;23.18;57.84;100584.44;5070863;28;20131;-53
2022/08/17 09:06:13;;;;;;;27.83;14.15;;;;;;;23.29;57.21;100580.03;5070051;28;20373;-54
2022/08/17 09:09:01;;;;;;;27.63;13.70;;;;;;;23.09;57.70;100583.19;5070096;28;20045;-54
2022/08/17 09:11:53;;;;;;;24.00;13.77;;;;;;;23.19;58.04;100579.84;5070136;28;20445;-54
2022/08/17 09:14:31;;;;;;;23.25;13.30;;;;;;;23.08;58.31;100586.13;5069977;28;20402;-53
2022/08/17 09:17:11;;;;;;;25.85;13.88;;;;;;;23.11;58.44;100582.94;5070401;28;20055;-57
2022/08/17 09:19:47;;;;;;;27.83;14.93;;;;;;;23.14;58.12;100586.00;5070170;28;20525;-53
2022/08/17 09:22:43;;;;;;;29.65;14.73;;;;;;;23.17;58.30;100590.91;5019014;28;20110;-54
2022/08/17 09:25:16;;;;;;;37.55;14.75;;;;;;;23.21;58.53;100593.13;5070048;28;20079;-54
2022/08/17 09:28:02;;;;;;;32.55;14.60;;;;;;;23.44;56.95;100587.63;5070134;28;20053;-54
2022/08/17 09:30:50;;;;;;;24.60;13.60;;;;;;;23.31;57.80;100590.63;5070029;28;20052;-53
2022/08/17 09:33:25;;;;;;;26.17;14.70;;;;;;;23.36;58.08;100596.94;5067927;28;20055;-52
2022/08/17 09:36:00;;;;;;;28.92;14.82;;;;;;;23.47;57.41;100597.16;5069961;28;20055;-52
2022/08/17 09:41:31;;;;;;;34.58;14.65;;;;;;;23.34;57.88;100601.78;5111182;27;20401;-50
2022/08/17 09:44:12;;;;;;;28.60;15.35;;;;;;;23.20;57.71;100605.84;5110665;28;20040;-51
2022/08/17 09:46:53;;;;;;;27.17;14.57;;;;;;;23.06;58.59;100596.38;5111237;28;20379;-53
2022/08/17 09:49:32;;;;;;;32.63;14.60;;;;;;;23.34;58.68;100609.09;5110973;28;20052;-52
2022/08/17 09:52:06;;;;;;;26.52;15.05;;;;;;;23.21;58.81;100606.66;5110776;28;20409;-53
2022/08/17 09:54:36;;;;;;;28.27;15.43;;;;;;;23.36;58.12;100601.56;5110654;28;20051;-53
2022/08/17 10:03:08;;;;;;;31.35;15.88;;;;;;;23.09;58.90;100614.84;5070413;28;20353;-53
2022/08/17 10:08:54;;;;;;;27.60;16.13;;;;;;;22.99;59.82;100626.22;5111366;27;20355;-54
2022/08/17 10:14:35;;;;;;;26.13;16.52;;;;;;;22.90;60.03;100625.78;5109897;28;20054;-54
2022/08/17 10:17:22;;;;;;;32.50;16.95;;;;;;;22.85;60.16;100622.97;5110913;28;20054;-53
2022/08/17 10:20:15;;;;;;;33.65;17.30;;;;;;;22.88;59.94;100630.59;5110024;28;20044;-53
2022/08/17 10:26:11;;;;;;;27.60;15.70;;;;;;;22.70;60.83;100634.28;5110434;28;20153;-54
2022/08/17 10:29:11;;;;;;;32.53;18.00;;;;;;;22.83;61.04;100635.91;5109907;28;20133;-53
2022/08/17 10:31:44;;;;;;;28.75;16.13;;;;;;;22.81;60.61;100640.72;5109652;28;20050;-53
2022/08/17 10:34:40;;;;;;;41.75;18.30;;;;;;;22.75;60.78;100637.09;5110648;28;20051;-54
2022/08/17 10:37:27;;;;;;;35.45;17.95;;;;;;;22.83;60.72;100637.78;5109389;28;20044;-53
2022/08/17 10:40:23;;;;;;;34.45;17.52;;;;;;;22.76;61.24;100638.75;5110855;28;20408;-53
2022/08/17 10:42:59;;;;;;;30.02;17.90;;;;;;;22.62;61.90;100635.47;5108801;28;20046;-53
2022/08/17 10:45:35;;;;;;;33.88;18.63;;;;;;;22.66;62.37;100632.28;5109141;28;20381;-53
2022/08/17 10:51:20;;;;;;;29.60;18.42;;;;;;;22.55;65.77;100618.53;5070600;28;20408;-54
2022/08/17 10:53:49;;;;;;;31.80;19.92;;;;;;;22.34;68.05;100611.03;5070238;28;20066;-54
2022/08/17 10:56:20;;;;;;;33.60;19.95;;;;;;;22.22;69.92;100600.19;5070695;28;20049;-53
2022/08/17 10:58:53;;;;;;;39.95;21.33;;;;;;;22.17;72.73;100589.28;5069245;28;20497;-54
2022/08/17 11:02:00;;;;;;;38.80;22.45;;;;;;;22.04;73.98;100579.53;5070623;28;20052;-53
2022/08/17 11:04:50;;;;;;;34.13;20.67;;;;;;;21.94;72.95;100574.72;5069421;28;20398;-54
2022/08/17 11:07:42;;;;;;;33.10;21.25;;;;;;;21.99;73.05;100576.69;5068745;28;20131;-54
2022/08/17 11:10:49;;;;;;;30.45;20.83;;;;;;;22.07;72.28;100579.06;5068710;28;20040;-54
2022/08/17 11:13:44;;;;;;;38.92;21.83;;;;;;;22.19;73.63;100587.16;5069678;28;20041;-53
2022/08/17 11:16:41;;;;;;;32.67;21.85;;;;;;;22.26;73.85;100593.28;5068527;28;20127;-54
2022/08/17 11:19:27;;;;;;;37.70;22.42;;;;;;;22.34;73.06;100592.09;5070144;28;20040;-54
2022/08/17 11:24:39;;;;;;;38.28;23.60;;;;;;;22.62;71.50;100600.31;5110629;27;20813;-52
2022/08/17 11:27:19;;;;;;;36.17;23.20;;;;;;;22.86;69.23;100604.88;5111008;28;20443;-53
2022/08/17 11:29:53;;;;;;;43.10;24.20;;;;;;;23.17;67.62;100617.16;5111236;28;20047;-54
2022/08/17 11:32:45;;;;;;;39.33;23.40;;;;;;;23.48;66.97;100620.44;5110527;28;20052;-54
2022/08/17 11:38:09;;;;;;;40.87;24.10;;;;;;;23.98;65.11;100616.16;5090143;27;1177509;-54
2022/08/17 11:41:01;;;;;;;41.92;25.38;;;;;;;24.20;63.02;100625.19;5111195;28;20357;-54
2022/08/17 11:44:00;;;;;;;40.50;23.98;;;;;;;24.50;62.60;100626.72;5110913;28;20054;-55
2022/08/17 11:52:47;;;;;;;46.92;29.10;;;;;;;25.12;57.62;100641.09;5110715;28;20508;-54
2022/08/17 12:04:23;;;;;;;43.30;29.58;;;;;;;24.28;60.53;100630.19;5109995;27;20354;-54
2022/08/17 12:06:58;;;;;;;47.92;29.38;;;;;;;24.52;61.25;100646.25;5110860;28;20096;-54
2022/08/17 12:09:30;;;;;;;48.55;31.10;;;;;;;24.57;59.20;100640.94;5111165;28;20043;-54
2022/08/17 12:12:03;;;;;;;43.22;29.65;;;;;;;24.61;59.87;100644.78;5110766;28;20068;-54
2022/08/17 12:14:33;;;;;;;45.38;28.92;;;;;;;24.64;59.22;100649.72;5111244;28;20067;-54
2022/08/17 12:17:22;;;;;;;45.92;29.48;;;;;;;24.66;59.34;100649.47;5109613;28;20036;-54
2022/08/17 12:19:51;;;;;;;45.95;32.03;;;;;;;24.57;59.22;100640.94;5111215;28;20076;-55
2022/08/17 12:22:31;;;;;;;43.85;31.33;;;;;;;24.60;59.05;100647.78;5110456;28;20397;-53
2022/08/17 12:25:09;;;;;;;47.70;30.90;;;;;;;24.60;59.94;100647.78;5022160;28;20477;-53
2022/08/17 12:27:45;;;;;;;43.88;30.52;;;;;;;24.81;59.75;100649.69;5110680;28;20286;-54
2022/08/17 12:30:16;;;;;;;45.03;30.83;;;;;;;25.16;58.97;100653.94;5110535;28;20047;-54
2022/08/17 12:32:47;;;;;;;44.67;31.38;;;;;;;25.14;58.21;100656.09;5110343;28;20236;-55
2022/08/17 12:35:28;;;;;;;48.33;32.45;;;;;;;25.20;58.51;100651.53;5110058;28;20471;-56
2022/08/17 12:37:57;;;;;;;50.80;33.33;;;;;;;25.22;58.44;100649.38;5110558;28;20043;-56
2022/08/17 12:40:28;;;;;;;43.47;29.33;;;;;;;25.13;58.10;100653.63;5110703;28;20481;-55
2022/08/17 12:43:00;;;;;;;41.63;30.92;;;;;;;25.19;58.39;100656.13;5110046;28;20370;-55
2022/08/17 12:45:31;;;;;;;45.65;31.30;;;;;;;25.39;57.38;100649.31;5110291;28;20056;-54
2022/08/17 12:48:05;;;;;;;44.70;30.33;;;;;;;25.29;58.06;100644.59;5110266;28;20048;-53
2022/08/17 12:50:35;;;;;;;46.97;31.35;;;;;;;25.29;58.37;100656.28;5110299;28;20039;-54
2022/08/17 12:53:09;;;;;;;51.92;31.25;;;;;;;24.94;58.67;100645.78;5109599;28;20512;-54
2022/08/17 12:55:37;;;;;;;45.15;31.60;;;;;;;24.86;59.69;100635.38;5110169;28;20044;-52
2022/08/17 12:58:05;;;;;;;47.75;33.10;;;;;;;24.93;60.00;100633.28;5109825;28;20093;-53
2022/08/17 13:00:39;;;;;;;46.70;30.77;;;;;;;25.00;60.38;100642.06;5110072;28;20202;-53
2022/08/17 13:03:15;;;;;;;46.55;32.25;;;;;;;24.90;60.38;100642.78;5109139;28;20493;-55
2022/08/17 13:05:54;;;;;;;55.28;31.55;;;;;;;24.92;60.04;100639.78;5109596;28;20040;-56
2022/08/17 13:08:31;;;;;;;53.60;34.20;;;;;;;25.04;59.72;100643.19;5109438;28;20052;-59
2022/08/17 13:11:03;;;;;;;53.47;36.05;;;;;;;25.27;59.41;100639.44;5109738;28;20047;-54
2022/08/17 13:13:32;;;;;;;55.72;37.80;;;;;;;25.27;58.86;100647.56;5106432;28;20044;-55